Greater Binghamton,Edwin A Link field Binghamton US
ICAO: KBGM
IATA: BGM
Category: Medium
Scheduled Services: Yes

Elevation: 1636 ft
TransAlt. 18000 ft.

Airport Communications:
APP/DEP:118.6
ATIS:128.15
CLNC DEL:125.05
CTAF:119.3
GND:121.9
BUFFALO RDO:112.2
TWR:119.3
UNICOM:122.95

KBGM Zoom In..

Runways:

(A) RW 10 length 5001 ft width 150 ft
---- / hdg 98

(B) RW 16 length 7304 ft width 150 ft
ILS 110.30 / hdg 160

(C) RW 28 length 5001 ft width 150 ft
---- / hdg 278

(D) RW 34 length 7304 ft width 150 ft
ILS 110.30 / hdg 340

Location; KBGM
Day. 20 / Time. 02.53 Zulu
* Altimeter: 30.13
* Temperature: 18° c. 64.4°f.
* Wind from: 130° Speed 04 kn.
Dewpoint: 09° c.
Visibility: 10 Statute Miles.
Clouds: Clear (automated report).

KBGM 200253Z 13004KT 10SM CLR 18/09 A3013 RMK AO2 SLP197 T01780089 51005


Wind From 130°
Speed 04 kn.

 
 
jpsmedia.com for Web Design worldairports.se 2018   terms of use